sensor_id;sensor_type;location;lat;lon;timestamp;pressure;altitude;pressure_sealevel;temperature;humidity
13767;BME280;47980;48.794;9.176;2022-10-17T00:01:26;98772.19;;;14.96;100.00
13767;BME280;47980;48.794;9.176;2022-10-17T00:03:58;98782.09;;;14.95;100.00
13767;BME280;47980;48.794;9.176;2022-10-17T00:06:30;98782.78;;;14.92;100.00
13767;BME280;47980;48.794;9.176;2022-10-17T00:09:02;98784.13;;;14.98;100.00
13767;BME280;47980;48.794;9.176;2022-10-17T00:11:35;98780.56;;;14.94;100.00
13767;BME280;47980;48.794;9.176;2022-10-17T00:14:07;98779.88;;;14.85;100.00
13767;BME280;47980;48.794;9.176;2022-10-17T00:16:39;98787.59;;;14.86;100.00
13767;BME280;47980;48.794;9.176;2022-10-17T00:19:11;98787.47;;;14.83;100.00
13767;BME280;47980;48.794;9.176;2022-10-17T00:21:43;98789.78;;;14.84;100.00
13767;BME280;47980;48.794;9.176;2022-10-17T00:24:15;98788.81;;;14.77;100.00
13767;BME280;47980;48.794;9.176;2022-10-17T00:26:48;98794.25;;;14.80;100.00
13767;BME280;47980;48.794;9.176;2022-10-17T00:29:20;98792.47;;;14.84;100.00
13767;BME280;47980;48.794;9.176;2022-10-17T00:31:53;98789.69;;;14.81;100.00
13767;BME280;47980;48.794;9.176;2022-10-17T00:34:28;98794.59;;;14.91;100.00
13767;BME280;47980;48.794;9.176;2022-10-17T00:37:00;98800.38;;;14.81;100.00
13767;BME280;47980;48.794;9.176;2022-10-17T00:39:32;98795.28;;;14.76;100.00
13767;BME280;47980;48.794;9.176;2022-10-17T00:42:09;98800.72;;;14.79;100.00
13767;BME280;47980;48.794;9.176;2022-10-17T00:45:14;98800.50;;;14.72;100.00
13767;BME280;47980;48.794;9.176;2022-10-17T00:47:48;98799.28;;;14.69;100.00
13767;BME280;47980;48.794;9.176;2022-10-17T00:50:21;98791.72;;;14.72;100.00
13767;BME280;47980;48.794;9.176;2022-10-17T00:52:58;98789.69;;;14.81;100.00
13767;BME280;47980;48.794;9.176;2022-10-17T00:55:34;98797.81;;;14.72;100.00
13767;BME280;47980;48.794;9.176;2022-10-17T00:58:10;98798.72;;;14.64;100.00
13767;BME280;47980;48.794;9.176;2022-10-17T01:00:42;98794.28;;;14.68;100.00
13767;BME280;47980;48.794;9.176;2022-10-17T01:03:14;98796.72;;;14.73;100.00
13767;BME280;47980;48.794;9.176;2022-10-17T01:05:46;98797.47;;;14.74;100.00
13767;BME280;47980;48.794;9.176;2022-10-17T01:08:18;98800.16;;;14.74;100.00
13767;BME280;47980;48.794;9.176;2022-10-17T01:10:56;98808.41;;;14.56;100.00
13767;BME280;47980;48.794;9.176;2022-10-17T01:13:38;98801.28;;;14.60;100.00
13767;BME280;47980;48.794;9.176;2022-10-17T01:16:17;98799.50;;;14.64;100.00
13767;BME280;47980;48.794;9.176;2022-10-17T01:18:55;98804.63;;;14.57;100.00
13767;BME280;47980;48.794;9.176;2022-10-17T01:21:36;98813.50;;;14.61;100.00
13767;BME280;47980;48.794;9.176;2022-10-17T01:24:45;98800.41;;;14.56;100.00
13767;BME280;47980;48.794;9.176;2022-10-17T01:27:40;98802.00;;;14.49;100.00
13767;BME280;47980;48.794;9.176;2022-10-17T01:30:56;98795.59;;;14.50;100.00
13767;BME280;47980;48.794;9.176;2022-10-17T01:33:36;98796.66;;;14.49;100.00
13767;BME280;47980;48.794;9.176;2022-10-17T01:36:12;98801.78;;;14.41;100.00
13767;BME280;47980;48.794;9.176;2022-10-17T01:38:48;98800.69;;;14.42;100.00
13767;BME280;47980;48.794;9.176;2022-10-17T01:41:27;98812.16;;;14.55;100.00
13767;BME280;47980;48.794;9.176;2022-10-17T01:44:07;98794.03;;;14.61;100.00
13767;BME280;47980;48.794;9.176;2022-10-17T01:46:44;98797.81;;;14.72;100.00
13767;BME280;47980;48.794;9.176;2022-10-17T01:49:20;98799.28;;;14.82;100.00
13767;BME280;47980;48.794;9.176;2022-10-17T01:51:57;98788.34;;;14.87;100.00
13767;BME280;47980;48.794;9.176;2022-10-17T01:54:33;98796.91;;;15.05;100.00
13767;BME280;47980;48.794;9.176;2022-10-17T01:57:13;98794.75;;;15.23;100.00
13767;BME280;47980;48.794;9.176;2022-10-17T01:59:47;98784.28;;;15.17;100.00
13767;BME280;47980;48.794;9.176;2022-10-17T02:02:24;98784.00;;;15.47;100.00
13767;BME280;47980;48.794;9.176;2022-10-17T02:04:57;98781.13;;;15.40;100.00
13767;BME280;47980;48.794;9.176;2022-10-17T02:07:29;98778.72;;;15.10;100.00
13767;BME280;47980;48.794;9.176;2022-10-17T02:10:01;98774.75;;;15.04;100.00
13767;BME280;47980;48.794;9.176;2022-10-17T02:12:44;98778.00;;;14.98;100.00
13767;BME280;47980;48.794;9.176;2022-10-17T02:15:32;98782.13;;;14.83;100.00
13767;BME280;47980;48.794;9.176;2022-10-17T02:18:22;98779.13;;;14.72;100.00
13767;BME280;47980;48.794;9.176;2022-10-17T02:21:06;98791.16;;;14.66;100.00
13767;BME280;47980;48.794;9.176;2022-10-17T02:23:43;98777.25;;;14.60;100.00
13767;BME280;47980;48.794;9.176;2022-10-17T02:26:24;98777.91;;;14.57;100.00
13767;BME280;47980;48.794;9.176;2022-10-17T02:29:04;98789.72;;;14.68;100.00
13767;BME280;47980;48.794;9.176;2022-10-17T02:31:40;98785.22;;;14.36;100.00
13767;BME280;47980;48.794;9.176;2022-10-17T02:34:17;98782.44;;;14.32;100.00
13767;BME280;47980;48.794;9.176;2022-10-17T02:36:54;98781.53;;;14.28;100.00
13767;BME280;47980;48.794;9.176;2022-10-17T02:39:27;98795.44;;;14.34;100.00
13767;BME280;47980;48.794;9.176;2022-10-17T02:42:02;98796.19;;;14.22;100.00
13767;BME280;47980;48.794;9.176;2022-10-17T02:44:37;98798.84;;;14.22;100.00
13767;BME280;47980;48.794;9.176;2022-10-17T02:47:16;98794.84;;;14.16;100.00
13767;BME280;47980;48.794;9.176;2022-10-17T02:49:56;98792.63;;;14.18;100.00
13767;BME280;47980;48.794;9.176;2022-10-17T02:52:33;98790.53;;;14.24;100.00
13767;BME280;47980;48.794;9.176;2022-10-17T02:55:12;98800.75;;;14.21;100.00
13767;BME280;47980;48.794;9.176;2022-10-17T02:57:49;98791.41;;;14.15;100.00
13767;BME280;47980;48.794;9.176;2022-10-17T03:00:22;98793.63;;;14.13;100.00
13767;BME280;47980;48.794;9.176;2022-10-17T03:02:55;98798.19;;;14.13;100.00
13767;BME280;47980;48.794;9.176;2022-10-17T03:05:28;98797.25;;;14.09;100.00
13767;BME280;47980;48.794;9.176;2022-10-17T03:08:00;98801.28;;;14.15;100.00
13767;BME280;47980;48.794;9.176;2022-10-17T03:10:31;98798.19;;;14.13;100.00
13767;BME280;47980;48.794;9.176;2022-10-17T03:13:03;98790.91;;;14.01;100.00
13767;BME280;47980;48.794;9.176;2022-10-17T03:15:35;98800.81;;;14.01;100.00
13767;BME280;47980;48.794;9.176;2022-10-17T03:18:07;98799.13;;;13.96;100.00
13767;BME280;47980;48.794;9.176;2022-10-17T03:20:40;98802.34;;;13.89;100.00
13767;BME280;47980;48.794;9.176;2022-10-17T03:23:12;98813.13;;;13.93;100.00
13767;BME280;47980;48.794;9.176;2022-10-17T03:25:44;98809.44;;;13.85;100.00
13767;BME280;47980;48.794;9.176;2022-10-17T03:28:15;98811.50;;;13.80;100.00
13767;BME280;47980;48.794;9.176;2022-10-17T03:30:47;98813.50;;;13.70;100.00
13767;BME280;47980;48.794;9.176;2022-10-17T03:33:19;98816.94;;;13.71;100.00
13767;BME280;47980;48.794;9.176;2022-10-17T03:35:52;98815.81;;;13.72;100.00
13767;BME280;47980;48.794;9.176;2022-10-17T03:38:23;98817.19;;;13.78;100.00
13767;BME280;47980;48.794;9.176;2022-10-17T03:40:55;98829.41;;;13.79;100.00
13767;BME280;47980;48.794;9.176;2022-10-17T03:43:27;98821.88;;;13.81;100.00
13767;BME280;47980;48.794;9.176;2022-10-17T03:45:59;98823.13;;;13.63;100.00
13767;BME280;47980;48.794;9.176;2022-10-17T03:48:31;98823.56;;;13.65;100.00
13767;BME280;47980;48.794;9.176;2022-10-17T03:51:06;98825.41;;;13.73;100.00
13767;BME280;47980;48.794;9.176;2022-10-17T03:53:38;98817.84;;;13.75;100.00
13767;BME280;47980;48.794;9.176;2022-10-17T03:56:11;98825.72;;;13.71;100.00
13767;BME280;47980;48.794;9.176;2022-10-17T03:58:44;98824.72;;;13.76;100.00
13767;BME280;47980;48.794;9.176;2022-10-17T04:01:17;98824.00;;;13.88;100.00
13767;BME280;47980;48.794;9.176;2022-10-17T04:03:50;98825.56;;;13.89;100.00
13767;BME280;47980;48.794;9.176;2022-10-17T04:06:23;98827.63;;;13.83;100.00
13767;BME280;47980;48.794;9.176;2022-10-17T04:08:55;98829.53;;;13.83;100.00
13767;BME280;47980;48.794;9.176;2022-10-17T04:11:26;98833.28;;;13.69;100.00
13767;BME280;47980;48.794;9.176;2022-10-17T04:13:58;98837.97;;;13.72;100.00
13767;BME280;47980;48.794;9.176;2022-10-17T04:16:30;98835.06;;;13.78;100.00
13767;BME280;47980;48.794;9.176;2022-10-17T04:19:02;98835.59;;;13.71;100.00
13767;BME280;47980;48.794;9.176;2022-10-17T04:21:35;98842.47;;;13.72;100.00
13767;BME280;47980;48.794;9.176;2022-10-17T04:24:09;98844.47;;;13.63;100.00
13767;BME280;47980;48.794;9.176;2022-10-17T04:26:41;98846.78;;;13.64;100.00
13767;BME280;47980;48.794;9.176;2022-10-17T04:29:12;98856.69;;;13.64;100.00
13767;BME280;47980;48.794;9.176;2022-10-17T04:31:44;98849.66;;;13.59;100.00
13767;BME280;47980;48.794;9.176;2022-10-17T04:34:16;98854.84;;;13.56;100.00
13767;BME280;47980;48.794;9.176;2022-10-17T04:36:49;98853.63;;;13.53;100.00
13767;BME280;47980;48.794;9.176;2022-10-17T04:39:21;98852.50;;;13.54;100.00
13767;BME280;47980;48.794;9.176;2022-10-17T04:41:52;98859.41;;;13.55;100.00
13767;BME280;47980;48.794;9.176;2022-10-17T04:44:25;98865.00;;;13.62;100.00
13767;BME280;47980;48.794;9.176;2022-10-17T04:47:00;98858.63;;;13.55;100.00
13767;BME280;47980;48.794;9.176;2022-10-17T04:49:31;98858.16;;;13.53;100.00
13767;BME280;47980;48.794;9.176;2022-10-17T04:52:05;98860.38;;;13.51;100.00
13767;BME280;47980;48.794;9.176;2022-10-17T04:54:36;98857.53;;;13.56;100.00
13767;BME280;47980;48.794;9.176;2022-10-17T04:57:08;98856.16;;;13.49;100.00
13767;BME280;47980;48.794;9.176;2022-10-17T04:59:40;98862.09;;;13.55;100.00
13767;BME280;47980;48.794;9.176;2022-10-17T05:02:12;98855.31;;;13.58;100.00
13767;BME280;47980;48.794;9.176;2022-10-17T05:04:44;98858.16;;;13.53;100.00
13767;BME280;47980;48.794;9.176;2022-10-17T05:07:17;98855.72;;;13.47;100.00
13767;BME280;47980;48.794;9.176;2022-10-17T05:09:48;98872.00;;;13.46;100.00
13767;BME280;47980;48.794;9.176;2022-10-17T05:12:20;98864.75;;;13.55;100.00
13767;BME280;47980;48.794;9.176;2022-10-17T05:14:52;98866.16;;;13.53;100.00
13767;BME280;47980;48.794;9.176;2022-10-17T05:20:44;98865.97;;;13.58;100.00
13767;BME280;47980;48.794;9.176;2022-10-17T05:32:45;98861.34;;;13.67;100.00
13767;BME280;47980;48.794;9.176;2022-10-17T05:35:16;98862.25;;;13.71;100.00
13767;BME280;47980;48.794;9.176;2022-10-17T05:37:48;98862.53;;;13.78;100.00
13767;BME280;47980;48.794;9.176;2022-10-17T05:40:19;98867.59;;;13.71;100.00
13767;BME280;47980;48.794;9.176;2022-10-17T05:42:51;98866.69;;;13.67;100.00
13767;BME280;47980;48.794;9.176;2022-10-17T05:45:23;98873.78;;;13.63;100.00
13767;BME280;47980;48.794;9.176;2022-10-17T05:47:56;98867.69;;;13.62;100.00
13767;BME280;47980;48.794;9.176;2022-10-17T05:50:27;98871.25;;;13.66;100.00
13767;BME280;47980;48.794;9.176;2022-10-17T05:52:59;98872.81;;;13.67;100.00
13767;BME280;47980;48.794;9.176;2022-10-17T05:55:30;98871.75;;;13.60;100.00
13767;BME280;47980;48.794;9.176;2022-10-17T05:58:02;98870.53;;;13.57;100.00
13767;BME280;47980;48.794;9.176;2022-10-17T06:00:33;98867.84;;;13.57;100.00
13767;BME280;47980;48.794;9.176;2022-10-17T06:03:08;98873.13;;;13.66;100.00
13767;BME280;47980;48.794;9.176;2022-10-17T06:05:40;98881.84;;;13.75;100.00
13767;BME280;47980;48.794;9.176;2022-10-17T06:08:11;98883.66;;;13.83;100.00
13767;BME280;47980;48.794;9.176;2022-10-17T06:10:46;98886.91;;;13.89;100.00
13767;BME280;47980;48.794;9.176;2022-10-17T06:13:18;98886.81;;;13.97;100.00
13767;BME280;47980;48.794;9.176;2022-10-17T06:15:49;98890.47;;;13.93;100.00
13767;BME280;47980;48.794;9.176;2022-10-17T06:18:22;98890.56;;;14.05;100.00
13767;BME280;47980;48.794;9.176;2022-10-17T06:21:00;98895.97;;;14.09;100.00
13767;BME280;47980;48.794;9.176;2022-10-17T06:23:32;98887.78;;;14.14;100.00
13767;BME280;47980;48.794;9.176;2022-10-17T06:26:05;98886.97;;;14.34;100.00
13767;BME280;47980;48.794;9.176;2022-10-17T06:29:05;98886.41;;;14.41;100.00
13767;BME280;47980;48.794;9.176;2022-10-17T06:32:04;98886.09;;;14.42;100.00
13767;BME280;47980;48.794;9.176;2022-10-17T06:34:37;98888.00;;;14.42;100.00
13767;BME280;47980;48.794;9.176;2022-10-17T06:37:09;98902.56;;;14.44;100.00
13767;BME280;47980;48.794;9.176;2022-10-17T06:39:40;98899.72;;;14.50;100.00
13767;BME280;47980;48.794;9.176;2022-10-17T06:42:12;98907.50;;;14.55;100.00
13767;BME280;47980;48.794;9.176;2022-10-17T06:44:43;98912.44;;;14.65;100.00
13767;BME280;47980;48.794;9.176;2022-10-17T06:47:15;98916.00;;;14.81;100.00
13767;BME280;47980;48.794;9.176;2022-10-17T06:49:48;98921.28;;;14.90;100.00
13767;BME280;47980;48.794;9.176;2022-10-17T06:52:19;98931.84;;;14.99;100.00
13767;BME280;47980;48.794;9.176;2022-10-17T06:54:51;98938.31;;;15.10;100.00
13767;BME280;47980;48.794;9.176;2022-10-17T06:57:22;98939.78;;;15.20;100.00
13767;BME280;47980;48.794;9.176;2022-10-17T06:59:54;98941.91;;;15.26;100.00
13767;BME280;47980;48.794;9.176;2022-10-17T07:02:26;98950.25;;;15.37;100.00
13767;BME280;47980;48.794;9.176;2022-10-17T07:04:59;98948.44;;;15.53;100.00
13767;BME280;47980;48.794;9.176;2022-10-17T07:07:31;98946.75;;;15.61;100.00
13767;BME280;47980;48.794;9.176;2022-10-17T07:10:03;98947.44;;;15.58;100.00
13767;BME280;47980;48.794;9.176;2022-10-17T07:12:37;98946.22;;;15.80;100.00
13767;BME280;47980;48.794;9.176;2022-10-17T07:15:10;98955.88;;;15.97;100.00
13767;BME280;47980;48.794;9.176;2022-10-17T07:17:41;98949.94;;;16.03;100.00
13767;BME280;47980;48.794;9.176;2022-10-17T07:20:14;98951.66;;;16.24;100.00
13767;BME280;47980;48.794;9.176;2022-10-17T07:22:46;98951.97;;;16.34;100.00
13767;BME280;47980;48.794;9.176;2022-10-17T07:25:17;98954.75;;;16.54;99.65
13767;BME280;47980;48.794;9.176;2022-10-17T07:27:49;98958.22;;;16.82;98.03
13767;BME280;47980;48.794;9.176;2022-10-17T07:30:21;98967.97;;;17.06;97.06
13767;BME280;47980;48.794;9.176;2022-10-17T07:32:53;98965.22;;;17.19;94.42
13767;BME280;47980;48.794;9.176;2022-10-17T07:35:26;98963.22;;;17.31;93.57
13767;BME280;47980;48.794;9.176;2022-10-17T07:37:58;98963.03;;;17.56;92.70
13767;BME280;47980;48.794;9.176;2022-10-17T07:40:29;98971.66;;;17.65;91.51
13767;BME280;47980;48.794;9.176;2022-10-17T07:43:01;98969.94;;;17.57;87.47
13767;BME280;47980;48.794;9.176;2022-10-17T07:45:32;98973.72;;;17.72;87.73
13767;BME280;47980;48.794;9.176;2022-10-17T07:48:04;98979.50;;;17.90;87.52
13767;BME280;47980;48.794;9.176;2022-10-17T07:50:38;98979.72;;;18.00;87.80
13767;BME280;47980;48.794;9.176;2022-10-17T07:53:09;98981.31;;;18.21;87.40
13767;BME280;47980;48.794;9.176;2022-10-17T07:55:41;98983.84;;;17.94;87.57
13767;BME280;47980;48.794;9.176;2022-10-17T07:58:14;98981.31;;;17.86;86.36
13767;BME280;47980;48.794;9.176;2022-10-17T08:00:46;98982.66;;;18.31;86.50
13767;BME280;47980;48.794;9.176;2022-10-17T08:03:20;98975.00;;;18.52;85.36
13767;BME280;47980;48.794;9.176;2022-10-17T08:05:56;98980.31;;;18.29;85.64
13767;BME280;47980;48.794;9.176;2022-10-17T08:08:28;98981.94;;;18.53;83.44
13767;BME280;47980;48.794;9.176;2022-10-17T08:11:01;98983.97;;;18.40;85.02
13767;BME280;47980;48.794;9.176;2022-10-17T08:13:34;98986.16;;;18.54;84.74
13767;BME280;47980;48.794;9.176;2022-10-17T08:16:07;98984.53;;;18.49;85.19
13767;BME280;47980;48.794;9.176;2022-10-17T08:18:41;98989.81;;;18.65;84.01
13767;BME280;47980;48.794;9.176;2022-10-17T08:21:14;98983.13;;;18.36;84.42
13767;BME280;47980;48.794;9.176;2022-10-17T08:23:46;98987.56;;;18.87;81.74
13767;BME280;47980;48.794;9.176;2022-10-17T08:26:18;98993.38;;;18.89;80.63
13767;BME280;47980;48.794;9.176;2022-10-17T08:28:49;98988.06;;;18.53;82.60
13767;BME280;47980;48.794;9.176;2022-10-17T08:31:21;98988.91;;;18.58;82.03
13767;BME280;47980;48.794;9.176;2022-10-17T08:33:53;98988.16;;;18.38;83.74
13767;BME280;47980;48.794;9.176;2022-10-17T08:36:26;98991.97;;;18.75;82.24
13767;BME280;47980;48.794;9.176;2022-10-17T08:38:58;98989.84;;;18.85;80.64
13767;BME280;47980;48.794;9.176;2022-10-17T08:41:39;98996.59;;;18.98;79.72
13767;BME280;47980;48.794;9.176;2022-10-17T08:44:24;98996.91;;;18.73;81.09
13767;BME280;47980;48.794;9.176;2022-10-17T08:47:03;98991.53;;;18.73;81.97
13767;BME280;47980;48.794;9.176;2022-10-17T08:49:40;98992.59;;;18.88;82.70
13767;BME280;47980;48.794;9.176;2022-10-17T08:52:23;99002.84;;;19.06;79.43
13767;BME280;47980;48.794;9.176;2022-10-17T08:55:00;99005.72;;;19.39;80.93
13767;BME280;47980;48.794;9.176;2022-10-17T08:57:31;99002.72;;;19.67;75.81
13767;BME280;47980;48.794;9.176;2022-10-17T09:00:12;99004.03;;;19.54;77.11
13767;BME280;47980;48.794;9.176;2022-10-17T09:02:53;99000.63;;;19.84;76.53
13767;BME280;47980;48.794;9.176;2022-10-17T09:05:40;99002.25;;;19.88;75.11
13767;BME280;47980;48.794;9.176;2022-10-17T09:08:27;99002.66;;;19.90;75.14
13767;BME280;47980;48.794;9.176;2022-10-17T09:11:10;99001.03;;;20.12;75.37
13767;BME280;47980;48.794;9.176;2022-10-17T09:13:50;98998.91;;;20.29;74.57
13767;BME280;47980;48.794;9.176;2022-10-17T09:16:44;98997.13;;;20.10;75.71
13767;BME280;47980;48.794;9.176;2022-10-17T09:19:23;98986.75;;;20.42;73.44
13767;BME280;47980;48.794;9.176;2022-10-17T09:21:58;98987.97;;;20.48;74.75
13767;BME280;47980;48.794;9.176;2022-10-17T09:24:38;98987.91;;;20.41;73.92
13767;BME280;47980;48.794;9.176;2022-10-17T09:27:19;98990.81;;;20.59;73.48
13767;BME280;47980;48.794;9.176;2022-10-17T09:29:57;98996.88;;;20.22;74.36
13767;BME280;47980;48.794;9.176;2022-10-17T09:32:32;99002.16;;;20.41;74.16
13767;BME280;47980;48.794;9.176;2022-10-17T09:35:07;98997.25;;;20.51;73.91
13767;BME280;47980;48.794;9.176;2022-10-17T09:37:42;99001.59;;;20.59;73.91
13767;BME280;47980;48.794;9.176;2022-10-17T09:40:19;98990.38;;;20.53;73.48
13767;BME280;47980;48.794;9.176;2022-10-17T09:42:53;98999.44;;;20.41;73.77
13767;BME280;47980;48.794;9.176;2022-10-17T09:45:24;98990.31;;;20.50;73.81
13767;BME280;47980;48.794;9.176;2022-10-17T09:48:03;98991.44;;;20.82;72.39
13767;BME280;47980;48.794;9.176;2022-10-17T09:50:38;98993.66;;;20.77;73.97
13767;BME280;47980;48.794;9.176;2022-10-17T09:53:12;98996.75;;;20.75;73.18
13767;BME280;47980;48.794;9.176;2022-10-17T09:55:48;98990.44;;;21.01;72.79
13767;BME280;47980;48.794;9.176;2022-10-17T09:58:20;98992.97;;;20.83;74.01
13767;BME280;47980;48.794;9.176;2022-10-17T10:00:54;98990.91;;;20.70;73.88
13767;BME280;47980;48.794;9.176;2022-10-17T10:03:45;98990.81;;;21.00;74.17
13767;BME280;47980;48.794;9.176;2022-10-17T10:06:18;98986.00;;;21.23;72.88
13767;BME280;47980;48.794;9.176;2022-10-17T10:08:51;98989.00;;;21.11;74.32
13767;BME280;47980;48.794;9.176;2022-10-17T10:14:20;98992.41;;;21.52;71.49
13767;BME280;47980;48.794;9.176;2022-10-17T10:16:52;98994.03;;;21.64;70.49
13767;BME280;47980;48.794;9.176;2022-10-17T10:19:27;98988.66;;;21.71;70.95
13767;BME280;47980;48.794;9.176;2022-10-17T10:22:01;98986.84;;;21.86;71.74
13767;BME280;47980;48.794;9.176;2022-10-17T10:24:33;98995.44;;;22.06;69.50
13767;BME280;47980;48.794;9.176;2022-10-17T10:27:11;98999.78;;;22.21;68.46
13767;BME280;47980;48.794;9.176;2022-10-17T10:29:48;98996.72;;;22.30;67.89
13767;BME280;47980;48.794;9.176;2022-10-17T10:32:22;98994.44;;;22.39;67.06
13767;BME280;47980;48.794;9.176;2022-10-17T10:34:57;98998.66;;;22.33;66.44
13767;BME280;47980;48.794;9.176;2022-10-17T10:37:33;98998.25;;;22.27;67.20
13767;BME280;47980;48.794;9.176;2022-10-17T10:40:15;99001.44;;;22.54;66.59
13767;BME280;47980;48.794;9.176;2022-10-17T10:42:51;98997.63;;;22.70;63.98
13767;BME280;47980;48.794;9.176;2022-10-17T10:45:25;98999.53;;;22.66;65.78
13767;BME280;47980;48.794;9.176;2022-10-17T10:47:58;99003.78;;;22.59;66.42
13767;BME280;47980;48.794;9.176;2022-10-17T10:50:35;99004.53;;;22.60;67.25
13767;BME280;47980;48.794;9.176;2022-10-17T10:53:18;98996.81;;;22.66;66.90
13767;BME280;47980;48.794;9.176;2022-10-17T10:55:57;98999.53;;;22.73;64.96
13767;BME280;47980;48.794;9.176;2022-10-17T10:58:39;98991.88;;;22.96;64.30
13767;BME280;47980;48.794;9.176;2022-10-17T11:01:18;98998.47;;;22.95;62.77
13767;BME280;47980;48.794;9.176;2022-10-17T11:03:56;98995.38;;;22.97;63.01
13767;BME280;47980;48.794;9.176;2022-10-17T11:06:33;98999.22;;;22.96;63.28
13767;BME280;47980;48.794;9.176;2022-10-17T11:09:15;98991.47;;;22.94;62.18
13767;BME280;47980;48.794;9.176;2022-10-17T11:11:53;98994.19;;;23.05;61.11
13767;BME280;47980;48.794;9.176;2022-10-17T11:14:34;98993.84;;;23.17;60.37
13767;BME280;47980;48.794;9.176;2022-10-17T11:17:14;98994.22;;;23.34;60.92
13767;BME280;47980;48.794;9.176;2022-10-17T11:19:54;98994.56;;;23.64;59.61
13767;BME280;47980;48.794;9.176;2022-10-17T11:22:31;98985.66;;;23.60;57.36
13767;BME280;47980;48.794;9.176;2022-10-17T11:25:08;98977.88;;;23.91;59.07
13767;BME280;47980;48.794;9.176;2022-10-17T11:27:44;98970.53;;;23.84;53.63
13767;BME280;47980;48.794;9.176;2022-10-17T11:30:18;98970.09;;;24.00;56.21
13767;BME280;47980;48.794;9.176;2022-10-17T11:33:00;98972.66;;;24.32;55.42
13767;BME280;47980;48.794;9.176;2022-10-17T11:36:13;98975.06;;;24.23;51.61
13767;BME280;47980;48.794;9.176;2022-10-17T11:39:01;98974.91;;;24.59;49.63
13767;BME280;47980;48.794;9.176;2022-10-17T11:41:36;98975.25;;;24.61;50.44
13767;BME280;47980;48.794;9.176;2022-10-17T11:44:17;98973.34;;;24.58;49.50
13767;BME280;47980;48.794;9.176;2022-10-17T11:46:55;98975.19;;;24.71;49.98
13767;BME280;47980;48.794;9.176;2022-10-17T11:49:33;98959.91;;;24.95;49.17
13767;BME280;47980;48.794;9.176;2022-10-17T11:52:15;98964.56;;;24.95;48.17
13767;BME280;47980;48.794;9.176;2022-10-17T11:54:53;98969.66;;;24.86;49.79
13767;BME280;47980;48.794;9.176;2022-10-17T11:57:49;98967.59;;;25.04;51.25
13767;BME280;47980;48.794;9.176;2022-10-17T12:00:47;98957.72;;;24.76;49.22
13767;BME280;47980;48.794;9.176;2022-10-17T12:03:38;98974.00;;;24.72;49.87
13767;BME280;47980;48.794;9.176;2022-10-17T12:06:14;98955.59;;;24.98;47.65
13767;BME280;47980;48.794;9.176;2022-10-17T12:08:54;98961.47;;;24.93;48.69
13767;BME280;47980;48.794;9.176;2022-10-17T12:11:41;98956.44;;;24.95;49.89
13767;BME280;47980;48.794;9.176;2022-10-17T12:14:34;98962.16;;;25.04;49.37
13767;BME280;47980;48.794;9.176;2022-10-17T12:17:27;98945.84;;;25.08;47.95
13767;BME280;47980;48.794;9.176;2022-10-17T12:20:33;98950.50;;;25.11;49.93
13767;BME280;47980;48.794;9.176;2022-10-17T12:23:22;98960.53;;;25.17;49.58
13767;BME280;47980;48.794;9.176;2022-10-17T12:25:57;98958.09;;;25.30;48.72
13767;BME280;47980;48.794;9.176;2022-10-17T12:28:31;98954.19;;;25.35;48.82
13767;BME280;47980;48.794;9.176;2022-10-17T12:31:06;98951.19;;;25.22;48.70
13767;BME280;47980;48.794;9.176;2022-10-17T12:33:48;98961.72;;;25.16;48.25
13767;BME280;47980;48.794;9.176;2022-10-17T12:36:45;98959.75;;;25.20;49.42
13767;BME280;47980;48.794;9.176;2022-10-17T12:39:47;98954.28;;;25.24;47.42
13767;BME280;47980;48.794;9.176;2022-10-17T12:42:32;98961.19;;;25.32;47.74
13767;BME280;47980;48.794;9.176;2022-10-17T12:45:46;98967.78;;;25.31;48.34
13767;BME280;47980;48.794;9.176;2022-10-17T12:48:59;98962.44;;;25.24;47.74
13767;BME280;47980;48.794;9.176;2022-10-17T12:54:50;98960.88;;;25.23;49.75
13767;BME280;47980;48.794;9.176;2022-10-17T12:57:33;98953.09;;;25.25;49.37
13767;BME280;47980;48.794;9.176;2022-10-17T13:00:14;98954.22;;;25.31;49.65
13767;BME280;47980;48.794;9.176;2022-10-17T13:02:48;98960.47;;;25.25;48.66
13767;BME280;47980;48.794;9.176;2022-10-17T13:05:26;98962.38;;;25.31;48.61
13767;BME280;47980;48.794;9.176;2022-10-17T13:08:00;98961.53;;;25.34;48.95
13767;BME280;47980;48.794;9.176;2022-10-17T13:10:36;98978.22;;;25.36;48.36
13767;BME280;47980;48.794;9.176;2022-10-17T13:13:14;98971.34;;;25.25;55.53
13767;BME280;47980;48.794;9.176;2022-10-17T13:15:48;98974.06;;;25.25;56.99
13767;BME280;47980;48.794;9.176;2022-10-17T13:18:21;98977.19;;;25.19;58.86
13767;BME280;47980;48.794;9.176;2022-10-17T13:20:55;98994.13;;;24.82;60.32
13767;BME280;47980;48.794;9.176;2022-10-17T13:23:33;99000.44;;;24.65;60.97
13767;BME280;47980;48.794;9.176;2022-10-17T13:26:13;99006.88;;;24.89;60.63
13767;BME280;47980;48.794;9.176;2022-10-17T13:28:46;99002.56;;;24.98;59.00
13767;BME280;47980;48.794;9.176;2022-10-17T13:31:27;98996.34;;;24.94;58.29
13767;BME280;47980;48.794;9.176;2022-10-17T13:34:01;99002.22;;;24.89;57.50
13767;BME280;47980;48.794;9.176;2022-10-17T13:36:34;99007.75;;;24.75;58.16
13767;BME280;47980;48.794;9.176;2022-10-17T13:39:07;99008.28;;;24.52;57.85
13767;BME280;47980;48.794;9.176;2022-10-17T13:41:41;99006.28;;;24.60;57.81
13767;BME280;47980;48.794;9.176;2022-10-17T13:44:14;99008.50;;;24.76;57.10
13767;BME280;47980;48.794;9.176;2022-10-17T13:46:47;99018.53;;;24.86;56.01
13767;BME280;47980;48.794;9.176;2022-10-17T13:49:21;99015.81;;;24.89;56.66
13767;BME280;47980;48.794;9.176;2022-10-17T13:51:54;99014.25;;;24.88;55.62
13767;BME280;47980;48.794;9.176;2022-10-17T13:54:35;99015.16;;;24.67;55.97
13767;BME280;47980;48.794;9.176;2022-10-17T13:57:18;99008.56;;;24.65;55.71
13767;BME280;47980;48.794;9.176;2022-10-17T13:59:52;99015.84;;;24.82;56.16
13767;BME280;47980;48.794;9.176;2022-10-17T14:02:26;99013.69;;;24.56;55.44